KPVB

Platteville Municipal Airport

Platteville, Wisconsin, USA
METAR KPVB 181615Z AUTO 19012KT 10SM CLR 10/00 A3049 RMK AO1 T01020003
Observed Flight Rules
Oct-18 @ 16:15 UTC (22 minutes ago) Visual Flight Rules
Wind Visibility Clouds
190° at 12 knots 10 miles
  • Clear skies
Temperatures Readings
Current 10°C / 50°F
Dewpoint 0°C / 32°F
Humidity 50%
Altimeter 30.49" Hg
Pressure 1033 hPa
Elevation 313
METAR KPVB 181615Z AUTO 19012KT 10SM CLR 10/00 A3049 RMK AO1 T01020003
Observed Flight Rules
Oct-18 @ 16:15 UTC
(22 minutes ago)
VFR
Wind Visibility
190° at 12 knots 10 miles
Clouds
  • Clear skies
Temperature Dewpoint
10°C / 50°F 0°C / 32°F
Humidity Altimeter Pressure
50% 30.49" Hg 1033 hPa